createdAt,value
2019-02-20T00:00:41.968Z,1006.36
2019-02-20T00:01:41.933Z,1006.40
2019-02-20T00:02:41.927Z,1006.38
2019-02-20T00:03:41.914Z,1006.40
2019-02-20T00:04:41.903Z,1006.42
2019-02-20T00:05:41.890Z,1006.45
2019-02-20T00:06:41.921Z,1006.39
2019-02-20T00:07:41.870Z,1006.36
2019-02-20T00:08:41.857Z,1006.45
2019-02-20T00:09:41.870Z,1006.44
2019-02-20T00:10:42.594Z,1006.42
2019-02-20T00:11:41.825Z,1006.49
2019-02-20T00:12:41.804Z,1006.46
2019-02-20T00:13:41.793Z,1006.50
2019-02-20T00:14:42.573Z,1006.52
2019-02-20T00:15:42.583Z,1006.43
2019-02-20T00:16:41.760Z,1006.47
2019-02-20T00:17:41.761Z,1006.48
2019-02-20T00:18:41.739Z,1006.51
2019-02-20T00:19:41.728Z,1006.49
2019-02-20T00:20:41.721Z,1006.48
2019-02-20T00:21:41.742Z,1006.52
2019-02-20T00:22:41.699Z,1006.55
2019-02-20T00:23:41.714Z,1006.54
2019-02-20T00:24:41.702Z,1006.50
2019-02-20T00:25:41.665Z,1006.54
2019-02-20T00:26:42.566Z,1006.53
2019-02-20T00:27:41.656Z,1006.55
2019-02-20T00:28:41.640Z,1006.57
2019-02-20T00:29:41.620Z,1006.54
2019-02-20T00:30:41.607Z,1006.56
2019-02-20T00:31:41.620Z,1006.59
2019-02-20T00:32:41.628Z,1006.63
2019-02-20T00:33:41.580Z,1006.61
2019-02-20T00:34:41.566Z,1006.62
2019-02-20T00:35:41.597Z,1006.68
2019-02-20T00:36:41.547Z,1006.61
2019-02-20T00:37:41.537Z,1006.63
2019-02-20T00:38:41.535Z,1006.65
2019-02-20T00:39:41.511Z,1006.59
2019-02-20T00:40:41.505Z,1006.60
2019-02-20T00:41:41.519Z,1006.63
2019-02-20T00:42:41.555Z,1006.65
2019-02-20T00:43:41.463Z,1006.68
2019-02-20T00:44:43.111Z,1006.65
2019-02-20T00:45:41.440Z,1006.69
2019-02-20T00:46:41.439Z,1006.62
2019-02-20T00:47:40.425Z,1006.68
2019-02-20T00:48:41.410Z,1006.65
2019-02-20T00:49:42.059Z,1006.69
2019-02-20T00:50:41.398Z,1006.73
2019-02-20T00:51:41.377Z,1006.65
2019-02-20T00:52:49.675Z,1006.71
2019-02-20T00:53:41.355Z,1006.69
2019-02-20T00:54:41.359Z,1006.66
2019-02-20T00:55:41.422Z,1006.69
2019-02-20T00:56:41.324Z,1006.67
2019-02-20T00:57:41.315Z,1006.69
2019-02-20T00:58:41.306Z,1006.67
2019-02-20T01:00:40.286Z,1006.71
2019-02-20T01:01:41.282Z,1006.73
2019-02-20T01:02:44.061Z,1006.69
2019-02-20T01:03:41.248Z,1006.71
2019-02-20T01:04:41.239Z,1006.70
2019-02-20T01:05:41.227Z,1006.72
2019-02-20T01:06:41.216Z,1006.72
2019-02-20T01:07:41.250Z,1006.73
2019-02-20T01:09:40.183Z,1006.70
2019-02-20T01:10:41.175Z,1006.74
2019-02-20T01:11:41.173Z,1006.68
2019-02-20T01:12:42.073Z,1006.64
2019-02-20T01:13:41.603Z,1006.64
2019-02-20T01:14:49.104Z,1006.67
2019-02-20T01:15:44.062Z,1006.68
2019-02-20T01:17:40.102Z,1006.70
2019-02-20T01:18:51.602Z,1006.53
2019-02-20T01:19:41.081Z,1006.57
2019-02-20T01:20:41.063Z,1006.61
2019-02-20T01:21:41.055Z,1006.53
2019-02-20T01:22:41.041Z,1006.54
2019-02-20T01:23:41.032Z,1006.51
2019-02-20T01:26:39.998Z,1006.55
2019-02-20T01:27:40.985Z,1006.53
2019-02-20T01:28:40.975Z,1006.51
2019-02-20T01:29:40.991Z,1006.55
2019-02-20T01:30:40.957Z,1006.57
2019-02-20T01:31:40.933Z,1006.54
2019-02-20T01:32:40.923Z,1006.50
2019-02-20T01:33:41.548Z,1006.48
2019-02-20T01:34:41.549Z,1006.49
2019-02-20T01:35:40.937Z,1006.50
2019-02-20T01:36:40.879Z,1006.50
2019-02-20T01:37:40.873Z,1006.50
2019-02-20T01:38:41.550Z,1006.52
2019-02-20T01:39:40.851Z,1006.48
2019-02-20T01:40:40.843Z,1006.50
2019-02-20T01:41:40.857Z,1006.48
2019-02-20T01:42:43.547Z,1006.47
2019-02-20T01:43:41.549Z,1006.48
2019-02-20T01:44:40.793Z,1006.47
2019-02-20T01:45:40.792Z,1006.50
2019-02-20T01:46:41.545Z,1006.52
2019-02-20T01:47:40.763Z,1006.44
2019-02-20T01:48:40.755Z,1006.51
2019-02-20T01:49:40.744Z,1006.44
2019-02-20T01:50:40.741Z,1006.47
2019-02-20T01:51:40.722Z,1006.47
2019-02-20T01:52:40.708Z,1006.39
2019-02-20T01:53:40.698Z,1006.42
2019-02-20T01:54:40.687Z,1006.44
2019-02-20T01:55:40.686Z,1006.42
2019-02-20T01:56:40.679Z,1006.43
2019-02-20T01:57:40.658Z,1006.45
2019-02-20T01:58:40.639Z,1006.48
2019-02-20T01:59:40.640Z,1006.47
2019-02-20T02:00:40.635Z,1006.54
2019-02-20T02:01:40.641Z,1006.56
2019-02-20T02:02:40.604Z,1006.50
2019-02-20T02:03:40.598Z,1006.49
2019-02-20T02:04:40.582Z,1006.49
2019-02-20T02:05:40.583Z,1006.54
2019-02-20T02:06:40.555Z,1006.53
2019-02-20T02:07:41.043Z,1006.47
2019-02-20T02:08:40.539Z,1006.51
2019-02-20T02:09:40.522Z,1006.53
2019-02-20T02:10:40.520Z,1006.59
2019-02-20T02:11:41.038Z,1006.53
2019-02-20T02:12:40.489Z,1006.50
2019-02-20T02:13:41.041Z,1006.53
2019-02-20T02:14:40.469Z,1006.50
2019-02-20T02:15:40.460Z,1006.48
2019-02-20T02:16:40.452Z,1006.51
2019-02-20T02:17:40.437Z,1006.48
2019-02-20T02:18:40.418Z,1006.55
2019-02-20T02:19:40.446Z,1006.57
2019-02-20T02:20:40.428Z,1006.55
2019-02-20T02:21:40.391Z,1006.47
2019-02-20T02:22:40.389Z,1006.51
2019-02-20T02:23:40.374Z,1006.53
2019-02-20T02:24:40.363Z,1006.57
2019-02-20T02:25:43.034Z,1006.55
2019-02-20T02:26:40.335Z,1006.52
2019-02-20T02:27:43.034Z,1006.54
2019-02-20T02:28:40.313Z,1006.50
2019-02-20T02:29:40.302Z,1006.50
2019-02-20T02:31:39.281Z,1006.54
2019-02-20T02:33:39.263Z,1006.55
2019-02-20T02:34:40.254Z,1006.53
2019-02-20T02:35:40.259Z,1006.62
2019-02-20T02:36:40.226Z,1006.57
2019-02-20T02:37:40.218Z,1006.56
2019-02-20T02:38:41.027Z,1006.60
2019-02-20T02:39:40.192Z,1006.58
2019-02-20T02:40:40.202Z,1006.53
2019-02-20T02:41:40.177Z,1006.59
2019-02-20T02:42:43.035Z,1006.59
2019-02-20T02:43:40.154Z,1006.57
2019-02-20T02:44:40.153Z,1006.58
2019-02-20T02:45:40.152Z,1006.67
2019-02-20T02:46:40.118Z,1006.69
2019-02-20T02:47:40.109Z,1006.61
2019-02-20T02:48:40.097Z,1006.63
2019-02-20T02:49:40.118Z,1006.60
2019-02-20T02:50:40.089Z,1006.62
2019-02-20T02:51:40.068Z,1006.66
2019-02-20T02:52:40.052Z,1006.61
2019-02-20T02:53:40.047Z,1006.66
2019-02-20T02:54:40.032Z,1006.64
2019-02-20T02:55:40.023Z,1006.60
2019-02-20T02:56:40.029Z,1006.61
2019-02-20T02:57:39.994Z,1006.68
2019-02-20T02:58:39.982Z,1006.68
2019-02-20T02:59:39.974Z,1006.70
2019-02-20T03:00:39.971Z,1006.68
2019-02-20T03:02:38.939Z,1006.70
2019-02-20T03:03:39.932Z,1006.64
2019-02-20T03:04:39.918Z,1006.66
2019-02-20T03:05:39.909Z,1006.60
2019-02-20T03:06:39.918Z,1006.65
2019-02-20T03:07:39.911Z,1006.58
2019-02-20T03:08:40.567Z,1006.68
2019-02-20T03:09:39.861Z,1006.65
2019-02-20T03:10:39.865Z,1006.64
2019-02-20T03:11:39.878Z,1006.68
2019-02-20T03:12:39.845Z,1006.63
2019-02-20T03:13:40.519Z,1006.70
2019-02-20T03:14:39.808Z,1006.68
2019-02-20T03:15:39.804Z,1006.65
2019-02-20T03:16:39.826Z,1006.73
2019-02-20T03:17:40.526Z,1006.76
2019-02-20T03:18:42.519Z,1006.73
2019-02-20T03:19:39.753Z,1006.75
2019-02-20T03:20:39.751Z,1006.78
2019-02-20T03:21:42.518Z,1006.76
2019-02-20T03:22:39.729Z,1006.74
2019-02-20T03:23:40.487Z,1006.78
2019-02-20T03:24:39.718Z,1006.82
2019-02-20T03:25:39.691Z,1006.81
2019-02-20T03:26:39.717Z,1006.80
2019-02-20T03:27:39.665Z,1006.79
2019-02-20T03:28:40.251Z,1006.78
2019-02-20T03:29:38.662Z,1006.79
2019-02-20T03:30:39.639Z,1006.80
2019-02-20T03:31:39.668Z,1006.83
2019-02-20T03:32:39.619Z,1006.81
2019-02-20T03:33:39.617Z,1006.79
2019-02-20T03:34:39.607Z,1006.82
2019-02-20T03:35:39.580Z,1006.83
2019-02-20T03:36:39.602Z,1006.83
2019-02-20T03:37:39.568Z,1006.84
2019-02-20T03:38:39.546Z,1006.83
2019-02-20T03:39:39.536Z,1006.89
2019-02-20T03:40:39.524Z,1006.83
2019-02-20T03:41:39.542Z,1006.89
2019-02-20T03:42:39.503Z,1006.93
2019-02-20T03:43:39.508Z,1006.91
2019-02-20T03:44:39.485Z,1006.96
2019-02-20T03:45:39.481Z,1006.98
2019-02-20T03:46:39.463Z,1006.97
2019-02-20T03:47:39.451Z,1007.01
2019-02-20T03:48:39.438Z,1007.01
2019-02-20T03:49:39.438Z,1007.05
2019-02-20T03:50:39.416Z,1007.04
2019-02-20T03:51:39.419Z,1007.01
2019-02-20T03:52:39.409Z,1007.09
2019-02-20T03:53:39.376Z,1007.09
2019-02-20T03:54:39.369Z,1007.07
2019-02-20T03:55:39.368Z,1007.09
2019-02-20T03:56:39.354Z,1007.08
2019-02-20T03:57:39.343Z,1007.00
2019-02-20T03:58:39.334Z,1007.05
2019-02-20T03:59:39.314Z,1007.04
2019-02-20T04:00:39.330Z,1007.05
2019-02-20T04:01:39.296Z,1007.06
2019-02-20T04:02:39.284Z,1007.07
2019-02-20T04:03:39.299Z,1007.00
2019-02-20T04:04:39.266Z,1007.00
2019-02-20T04:05:39.284Z,1007.03
2019-02-20T04:06:39.304Z,1006.98
2019-02-20T04:07:39.232Z,1007.03
2019-02-20T04:08:39.224Z,1007.07
2019-02-20T04:09:39.211Z,1007.05
2019-02-20T04:10:39.204Z,1007.06
2019-02-20T04:11:39.208Z,1007.09
2019-02-20T04:12:39.178Z,1007.04
2019-02-20T04:13:42.004Z,1007.01
2019-02-20T04:14:39.159Z,1007.06
2019-02-20T04:15:39.141Z,1007.07
2019-02-20T04:16:39.205Z,1007.10
2019-02-20T04:17:39.126Z,1007.07
2019-02-20T04:18:39.124Z,1007.09
2019-02-20T04:19:39.098Z,1007.06
2019-02-20T04:20:39.089Z,1007.05
2019-02-20T04:21:39.105Z,1007.00
2019-02-20T04:22:39.058Z,1006.97
2019-02-20T04:23:39.079Z,1007.00
2019-02-20T04:24:39.044Z,1007.01
2019-02-20T04:25:39.034Z,1007.01
2019-02-20T04:26:39.023Z,1007.04
2019-02-20T04:27:39.052Z,1007.02
2019-02-20T04:28:39.505Z,1007.03
2019-02-20T04:29:39.498Z,1007.04
2019-02-20T04:30:39.016Z,1007.04
2019-02-20T04:31:38.973Z,1007.09
2019-02-20T04:32:38.959Z,1007.07
2019-02-20T04:33:38.017Z,1007.06
2019-02-20T04:34:38.933Z,1007.02
2019-02-20T04:35:38.921Z,1007.01
2019-02-20T04:36:38.936Z,1007.06
2019-02-20T04:37:38.905Z,1007.02
2019-02-20T04:38:38.896Z,1007.04
2019-02-20T04:39:38.872Z,1007.05
2019-02-20T04:40:38.876Z,1007.03
2019-02-20T04:41:38.884Z,1007.00
2019-02-20T04:42:38.844Z,1007.02
2019-02-20T04:43:38.834Z,1007.00
2019-02-20T04:44:38.863Z,1007.03
2019-02-20T04:45:38.807Z,1006.96
2019-02-20T04:46:38.824Z,1007.00
2019-02-20T04:47:38.793Z,1007.02
2019-02-20T04:48:38.792Z,1007.08
2019-02-20T04:49:38.772Z,1007.02
2019-02-20T04:51:37.781Z,1007.11
2019-02-20T04:52:38.746Z,1007.04
2019-02-20T04:53:38.715Z,1006.98
2019-02-20T04:54:38.708Z,1007.06
2019-02-20T04:55:38.707Z,1007.09
2019-02-20T04:56:38.713Z,1007.13
2019-02-20T04:57:38.679Z,1007.12
2019-02-20T04:58:38.661Z,1007.13
2019-02-20T04:59:38.656Z,1007.15
2019-02-20T05:00:38.703Z,1007.18
2019-02-20T05:01:38.667Z,1007.22
2019-02-20T05:02:38.626Z,1007.18
2019-02-20T05:03:38.620Z,1007.15
2019-02-20T05:04:38.609Z,1007.11
2019-02-20T05:05:38.595Z,1007.16
2019-02-20T05:07:37.601Z,1007.15
2019-02-20T05:08:38.577Z,1007.17
2019-02-20T05:09:39.698Z,1007.18
2019-02-20T05:10:38.540Z,1007.24
2019-02-20T05:11:38.549Z,1007.22
2019-02-20T05:12:38.512Z,1007.24
2019-02-20T05:13:38.508Z,1007.10
2019-02-20T05:14:38.514Z,1007.08
2019-02-20T05:15:38.480Z,1007.15
2019-02-20T05:16:38.512Z,1007.12
2019-02-20T05:17:38.463Z,1007.17
2019-02-20T05:18:38.983Z,1007.17
2019-02-20T05:19:38.440Z,1007.12
2019-02-20T05:20:37.425Z,1007.10
2019-02-20T05:21:37.415Z,1007.11
2019-02-20T05:22:38.445Z,1007.08
2019-02-20T05:23:38.393Z,1007.10
2019-02-20T05:24:38.379Z,1007.10
2019-02-20T05:25:38.371Z,1007.08
2019-02-20T05:26:38.362Z,1007.07
2019-02-20T05:27:38.989Z,1007.13
2019-02-20T05:28:38.346Z,1007.13
2019-02-20T05:29:38.976Z,1007.15
2019-02-20T05:30:38.313Z,1007.19
2019-02-20T05:31:38.985Z,1007.13
2019-02-20T05:32:38.329Z,1007.14
2019-02-20T05:33:38.290Z,1007.15
2019-02-20T05:34:38.274Z,1007.15
2019-02-20T05:35:38.261Z,1007.14
2019-02-20T05:36:38.250Z,1007.16
2019-02-20T05:37:39.711Z,1007.13
2019-02-20T05:38:38.238Z,1007.13
2019-02-20T05:39:38.214Z,1007.18
2019-02-20T05:40:38.198Z,1007.13
2019-02-20T05:41:38.193Z,1007.13
2019-02-20T05:42:38.225Z,1007.23
2019-02-20T05:43:38.176Z,1007.23
2019-02-20T05:44:38.167Z,1007.19
2019-02-20T05:45:38.163Z,1007.13
2019-02-20T05:46:38.139Z,1007.13
2019-02-20T05:47:38.136Z,1007.15
2019-02-20T05:48:38.127Z,1007.15
2019-02-20T05:49:38.115Z,1007.12
2019-02-20T05:50:38.097Z,1007.12
2019-02-20T05:51:38.081Z,1007.15
2019-02-20T05:52:38.077Z,1007.19
2019-02-20T05:53:38.092Z,1007.24
2019-02-20T05:54:38.085Z,1007.25
2019-02-20T05:55:38.974Z,1007.31
2019-02-20T05:56:38.033Z,1007.31
2019-02-20T05:57:38.018Z,1007.39
2019-02-20T05:58:38.005Z,1007.39
2019-02-20T05:59:38.022Z,1007.44
2019-02-20T06:00:37.985Z,1007.44
2019-02-20T06:01:37.977Z,1007.48
2019-02-20T06:02:37.971Z,1007.42
2019-02-20T06:03:37.952Z,1007.49
2019-02-20T06:04:37.988Z,1007.44
2019-02-20T06:05:37.942Z,1007.42
2019-02-20T06:06:37.922Z,1007.40
2019-02-20T06:07:37.905Z,1007.46
2019-02-20T06:08:37.914Z,1007.49
2019-02-20T06:10:36.877Z,1007.50
2019-02-20T06:11:37.887Z,1007.55
2019-02-20T06:12:37.855Z,1007.61
2019-02-20T06:13:37.849Z,1007.63
2019-02-20T06:14:37.833Z,1007.66
2019-02-20T06:15:37.863Z,1007.63
2019-02-20T06:16:37.819Z,1007.61
2019-02-20T06:17:40.464Z,1007.68
2019-02-20T06:18:37.794Z,1007.66
2019-02-20T06:19:38.459Z,1007.70
2019-02-20T06:20:40.468Z,1007.70
2019-02-20T06:21:37.757Z,1007.76
2019-02-20T06:22:37.773Z,1007.81
2019-02-20T06:23:37.736Z,1007.81
2019-02-20T06:25:36.710Z,1007.83
2019-02-20T06:26:37.742Z,1007.87
2019-02-20T06:27:37.690Z,1007.87
2019-02-20T06:28:37.720Z,1007.94
2019-02-20T06:29:37.665Z,1007.91
2019-02-20T06:30:37.663Z,1007.93
2019-02-20T06:31:42.457Z,1007.92
2019-02-20T06:32:37.642Z,1007.90
2019-02-20T06:33:37.630Z,1007.92
2019-02-20T06:34:37.625Z,1007.96
2019-02-20T06:35:37.605Z,1007.92
2019-02-20T06:36:37.621Z,1007.97
2019-02-20T06:37:37.596Z,1008.00
2019-02-20T06:38:37.565Z,1007.98
2019-02-20T06:39:37.561Z,1008.00
2019-02-20T06:40:37.557Z,1008.03
2019-02-20T06:41:39.360Z,1008.07
2019-02-20T06:42:40.470Z,1008.11
2019-02-20T06:43:37.521Z,1008.11
2019-02-20T06:44:37.503Z,1008.10
2019-02-20T06:45:40.462Z,1008.09
2019-02-20T06:46:39.953Z,1008.07
2019-02-20T06:47:37.469Z,1008.09
2019-02-20T06:48:37.483Z,1008.10
2019-02-20T06:49:37.474Z,1008.09
2019-02-20T06:50:37.444Z,1008.13
2019-02-20T06:51:37.425Z,1008.11
2019-02-20T06:52:37.421Z,1008.14
2019-02-20T06:53:37.410Z,1008.16
2019-02-20T06:54:37.433Z,1008.20
2019-02-20T06:55:37.383Z,1008.18
2019-02-20T06:56:37.379Z,1008.17
2019-02-20T06:57:37.396Z,1008.22
2019-02-20T06:58:37.365Z,1008.21
2019-02-20T06:59:37.375Z,1008.28
2019-02-20T07:00:37.334Z,1008.22
2019-02-20T07:01:37.328Z,1008.25
2019-02-20T07:02:37.311Z,1008.23
2019-02-20T07:03:37.302Z,1008.26
2019-02-20T07:04:37.296Z,1008.26
2019-02-20T07:05:37.317Z,1008.28
2019-02-20T07:06:37.265Z,1008.26
2019-02-20T07:07:37.954Z,1008.27
2019-02-20T07:08:37.280Z,1008.31
2019-02-20T07:09:39.953Z,1008.28
2019-02-20T07:10:39.965Z,1008.33
2019-02-20T07:11:37.251Z,1008.33
2019-02-20T07:12:37.199Z,1008.36
2019-02-20T07:13:37.212Z,1008.36
2019-02-20T07:14:37.176Z,1008.35
2019-02-20T07:15:39.947Z,1008.35
2019-02-20T07:16:37.162Z,1008.33
2019-02-20T07:17:37.169Z,1008.34
2019-02-20T07:18:37.141Z,1008.30
2019-02-20T07:19:37.122Z,1008.35
2019-02-20T07:20:37.113Z,1008.36
2019-02-20T07:21:36.991Z,1008.38
2019-02-20T07:22:37.092Z,1008.37
2019-02-20T07:23:37.072Z,1008.38
2019-02-20T07:24:37.111Z,1008.47
2019-02-20T07:25:39.950Z,1008.49
2019-02-20T07:26:37.046Z,1008.60
2019-02-20T07:27:37.051Z,1008.55
2019-02-20T07:28:37.043Z,1008.55
2019-02-20T07:29:37.042Z,1008.56
2019-02-20T07:30:37.064Z,1008.56
2019-02-20T07:31:37.945Z,1008.58
2019-02-20T07:32:37.043Z,1008.63
2019-02-20T07:33:36.975Z,1008.59
2019-02-20T07:34:36.992Z,1008.59
2019-02-20T07:35:36.987Z,1008.68
2019-02-20T07:36:36.932Z,1008.73
2019-02-20T07:37:36.928Z,1008.67
2019-02-20T07:39:35.897Z,1008.73
2019-02-20T07:40:36.895Z,1008.70
2019-02-20T07:41:36.925Z,1008.69
2019-02-20T07:42:36.871Z,1008.71
2019-02-20T07:43:36.859Z,1008.74
2019-02-20T07:44:36.849Z,1008.72
2019-02-20T07:45:36.855Z,1008.72
2019-02-20T07:46:36.826Z,1008.76
2019-02-20T07:47:36.848Z,1008.72
2019-02-20T07:48:36.803Z,1008.79
2019-02-20T07:49:36.785Z,1008.78
2019-02-20T07:50:36.812Z,1008.82
2019-02-20T07:51:36.769Z,1008.84
2019-02-20T07:52:36.757Z,1008.81
2019-02-20T07:53:36.763Z,1008.91
2019-02-20T07:54:36.741Z,1008.89
2019-02-20T07:55:35.793Z,1008.86
2019-02-20T07:56:35.728Z,1008.90
2019-02-20T07:57:36.727Z,1008.93
2019-02-20T07:58:36.694Z,1008.90
2019-02-20T07:59:36.704Z,1008.94
2019-02-20T08:00:36.677Z,1008.98
2019-02-20T08:01:35.659Z,1009.00
2019-02-20T08:02:36.679Z,1008.96
2019-02-20T08:03:36.682Z,1008.96
2019-02-20T08:04:36.655Z,1008.97
2019-02-20T08:05:36.614Z,1008.92
2019-02-20T08:06:36.602Z,1008.99
2019-02-20T08:07:36.590Z,1008.96
2019-02-20T08:08:35.607Z,1009.03
2019-02-20T08:09:36.578Z,1009.00
2019-02-20T08:10:36.597Z,1008.99
2019-02-20T08:11:36.543Z,1009.00
2019-02-20T08:12:35.539Z,1009.02
2019-02-20T08:13:39.384Z,1009.02
2019-02-20T08:14:38.507Z,1008.99
2019-02-20T08:15:35.542Z,1008.96
2019-02-20T08:16:35.491Z,1008.99
2019-02-20T08:17:36.496Z,1009.09
2019-02-20T08:18:36.467Z,1009.08
2019-02-20T08:19:36.458Z,1009.07
2019-02-20T08:20:36.469Z,1009.15
2019-02-20T08:21:36.457Z,1009.11
2019-02-20T08:22:36.425Z,1009.19
2019-02-20T08:23:36.408Z,1009.22
2019-02-20T08:24:36.405Z,1009.16
2019-02-20T08:25:36.387Z,1009.18
2019-02-20T08:26:36.395Z,1009.20
2019-02-20T08:27:35.369Z,1009.19
2019-02-20T08:28:36.358Z,1009.19
2019-02-20T08:29:36.343Z,1009.17
2019-02-20T08:30:36.334Z,1009.22
2019-02-20T08:31:35.355Z,1009.22
2019-02-20T08:32:36.302Z,1009.24
2019-02-20T08:33:35.303Z,1009.25
2019-02-20T08:34:36.331Z,1009.20
2019-02-20T08:35:35.490Z,1009.21
2019-02-20T08:36:36.297Z,1009.15
2019-02-20T08:37:37.927Z,1009.17
2019-02-20T08:38:36.237Z,1009.18
2019-02-20T08:39:35.231Z,1009.13
2019-02-20T08:40:36.226Z,1009.18
2019-02-20T08:41:36.232Z,1009.21
2019-02-20T08:42:35.242Z,1009.14
2019-02-20T08:43:36.191Z,1009.18
2019-02-20T08:44:36.177Z,1009.21
2019-02-20T08:45:36.165Z,1009.26
2019-02-20T08:46:36.192Z,1009.29
2019-02-20T08:47:35.143Z,1009.32
2019-02-20T08:48:35.147Z,1009.27
2019-02-20T08:49:36.121Z,1009.34
2019-02-20T08:50:36.147Z,1009.40
2019-02-20T08:52:35.117Z,1009.41
2019-02-20T08:53:36.070Z,1009.40
2019-02-20T08:54:36.060Z,1009.38
2019-02-20T08:55:36.057Z,1009.37
2019-02-20T08:56:36.068Z,1009.37
2019-02-20T08:58:35.033Z,1009.41
2019-02-20T08:59:38.918Z,1009.41
2019-02-20T09:00:35.999Z,1009.44
2019-02-20T09:01:35.028Z,1009.44
2019-02-20T09:02:34.971Z,1009.42
2019-02-20T09:03:36.009Z,1009.46
2019-02-20T09:04:35.966Z,1009.46
2019-02-20T09:05:35.943Z,1009.52
2019-02-20T09:06:34.973Z,1009.49
2019-02-20T09:07:35.930Z,1009.53
2019-02-20T09:08:35.943Z,1009.54
2019-02-20T09:09:36.414Z,1009.53
2019-02-20T09:10:35.913Z,1009.50
2019-02-20T09:11:35.870Z,1009.51
2019-02-20T09:12:35.864Z,1009.48
2019-02-20T09:13:35.891Z,1009.53
2019-02-20T09:14:34.838Z,1009.49
2019-02-20T09:15:35.866Z,1009.57
2019-02-20T09:16:35.812Z,1009.57
2019-02-20T09:17:35.807Z,1009.52
2019-02-20T09:18:34.796Z,1009.50
2019-02-20T09:19:35.786Z,1009.50
2019-02-20T09:20:35.806Z,1009.53
2019-02-20T09:21:35.768Z,1009.49
2019-02-20T09:22:35.747Z,1009.51
2019-02-20T09:23:34.743Z,1009.51
2019-02-20T09:24:35.759Z,1009.45
2019-02-20T09:25:41.605Z,1009.53
2019-02-20T09:26:36.411Z,1009.45
2019-02-20T09:27:36.410Z,1009.48
2019-02-20T09:28:37.195Z,1009.49
2019-02-20T09:29:35.697Z,1009.52
2019-02-20T09:30:35.669Z,1009.54
2019-02-20T09:31:35.649Z,1009.50
2019-02-20T09:32:34.638Z,1009.58
2019-02-20T09:33:35.665Z,1009.52
2019-02-20T09:34:34.634Z,1009.57
2019-02-20T09:35:35.609Z,1009.56
2019-02-20T09:36:34.596Z,1009.55
2019-02-20T09:37:35.581Z,1009.60
2019-02-20T09:38:35.569Z,1009.58
2019-02-20T09:39:35.410Z,1009.52
2019-02-20T09:40:36.687Z,1009.58
2019-02-20T09:41:36.409Z,1009.63
2019-02-20T09:42:34.523Z,1009.61
2019-02-20T09:43:35.514Z,1009.59
2019-02-20T09:44:35.558Z,1009.57
2019-02-20T09:45:42.254Z,1009.63
2019-02-20T09:46:35.480Z,1009.62
2019-02-20T09:47:35.476Z,1009.65
2019-02-20T09:48:34.466Z,1009.60
2019-02-20T09:49:35.449Z,1009.62
2019-02-20T09:50:34.467Z,1009.63
2019-02-20T09:51:35.426Z,1009.55
2019-02-20T09:52:35.406Z,1009.57
2019-02-20T09:53:35.400Z,1009.54
2019-02-20T09:54:35.387Z,1009.61
2019-02-20T09:55:35.405Z,1009.53
2019-02-20T09:56:35.392Z,1009.58
2019-02-20T09:57:35.361Z,1009.57
2019-02-20T09:58:35.355Z,1009.53
2019-02-20T09:59:35.334Z,1009.55
2019-02-20T10:00:35.323Z,1009.60
2019-02-20T10:01:35.328Z,1009.55
2019-02-20T10:02:35.310Z,1009.59
2019-02-20T10:03:34.292Z,1009.56
2019-02-20T10:04:35.280Z,1009.64
2019-02-20T10:05:35.272Z,1009.59
2019-02-20T10:06:34.259Z,1009.55
2019-02-20T10:07:34.271Z,1009.59
2019-02-20T10:08:35.236Z,1009.60
2019-02-20T10:09:36.684Z,1009.62
2019-02-20T10:10:34.212Z,1009.59
2019-02-20T10:11:34.209Z,1009.52
2019-02-20T10:12:35.241Z,1009.56
2019-02-20T10:13:35.182Z,1009.52
2019-02-20T10:14:35.164Z,1009.51
2019-02-20T10:15:34.157Z,1009.49
2019-02-20T10:16:34.193Z,1009.47
2019-02-20T10:17:35.141Z,1009.52
2019-02-20T10:18:35.116Z,1009.52
2019-02-20T10:19:34.118Z,1009.51
2019-02-20T10:20:35.156Z,1009.53
2019-02-20T10:21:35.096Z,1009.55
2019-02-20T10:22:35.079Z,1009.51
2019-02-20T10:23:34.083Z,1009.53
2019-02-20T10:24:37.897Z,1009.53
2019-02-20T10:25:35.048Z,1009.55
2019-02-20T10:26:35.890Z,1009.54
2019-02-20T10:27:35.024Z,1009.53
2019-02-20T10:28:35.008Z,1009.52
2019-02-20T10:29:35.010Z,1009.49
2019-02-20T10:30:34.994Z,1009.56
2019-02-20T10:31:35.012Z,1009.55
2019-02-20T10:32:34.972Z,1009.59
2019-02-20T10:33:34.971Z,1009.58
2019-02-20T10:34:33.951Z,1009.50
2019-02-20T10:35:35.946Z,1009.63
2019-02-20T10:36:34.927Z,1009.60
2019-02-20T10:37:34.907Z,1009.61
2019-02-20T10:38:34.908Z,1009.59
2019-02-20T10:39:34.901Z,1009.53
2019-02-20T10:40:34.938Z,1009.49
2019-02-20T10:41:34.869Z,1009.56
2019-02-20T10:42:33.862Z,1009.52
2019-02-20T10:43:33.855Z,1009.51
2019-02-20T10:44:34.845Z,1009.51
2019-02-20T10:45:33.830Z,1009.51
2019-02-20T10:46:33.858Z,1009.55
2019-02-20T10:47:34.803Z,1009.56
2019-02-20T10:48:34.798Z,1009.55
2019-02-20T10:49:34.781Z,1009.53
2019-02-20T10:50:33.769Z,1009.55
2019-02-20T10:51:34.844Z,1009.55
2019-02-20T10:52:34.756Z,1009.54
2019-02-20T10:53:33.740Z,1009.53
2019-02-20T10:54:34.721Z,1009.46
2019-02-20T10:55:34.715Z,1009.59
2019-02-20T10:56:34.723Z,1009.50
2019-02-20T10:57:34.721Z,1009.49
2019-02-20T10:58:34.697Z,1009.51
2019-02-20T10:59:34.694Z,1009.47
2019-02-20T11:00:34.656Z,1009.51
2019-02-20T11:01:34.652Z,1009.55
2019-02-20T11:02:34.642Z,1009.62
2019-02-20T11:03:33.626Z,1009.55
2019-02-20T11:04:33.642Z,1009.58
2019-02-20T11:05:34.606Z,1009.58
2019-02-20T11:06:35.982Z,1009.59
2019-02-20T11:07:35.398Z,1009.56
2019-02-20T11:08:34.569Z,1009.64
2019-02-20T11:09:34.591Z,1009.63
2019-02-20T11:10:34.547Z,1009.60
2019-02-20T11:11:34.543Z,1009.56
2019-02-20T11:12:34.528Z,1009.69
2019-02-20T11:13:34.514Z,1009.64
2019-02-20T11:14:34.505Z,1009.66
2019-02-20T11:15:34.564Z,1009.62
2019-02-20T11:16:33.521Z,1009.69
2019-02-20T11:17:34.472Z,1009.67
2019-02-20T11:18:33.463Z,1009.69
2019-02-20T11:19:34.456Z,1009.65
2019-02-20T11:20:34.439Z,1009.64
2019-02-20T11:21:34.480Z,1009.69
2019-02-20T11:22:34.410Z,1009.72
2019-02-20T11:23:34.404Z,1009.59
2019-02-20T11:24:33.395Z,1009.59
2019-02-20T11:25:33.380Z,1009.61
2019-02-20T11:26:43.313Z,1009.61
2019-02-20T11:27:34.353Z,1009.60
2019-02-20T11:28:34.353Z,1009.58
2019-02-20T11:29:34.335Z,1009.58
2019-02-20T11:30:34.324Z,1009.56
2019-02-20T11:31:33.318Z,1009.53
2019-02-20T11:32:33.459Z,1009.58
2019-02-20T11:33:35.172Z,1009.55
2019-02-20T11:34:35.873Z,1009.53
2019-02-20T11:35:34.273Z,1009.53
2019-02-20T11:36:34.261Z,1009.55
2019-02-20T11:37:34.271Z,1009.58
2019-02-20T11:38:34.238Z,1009.56
2019-02-20T11:39:37.644Z,1009.60
2019-02-20T11:40:34.232Z,1009.59
2019-02-20T11:41:34.208Z,1009.55
2019-02-20T11:42:34.204Z,1009.55
2019-02-20T11:43:34.217Z,1009.52
2019-02-20T11:44:34.178Z,1009.55
2019-02-20T11:45:33.159Z,1009.50
2019-02-20T11:46:34.145Z,1009.49
2019-02-20T11:47:34.167Z,1009.44
2019-02-20T11:48:34.138Z,1009.54
2019-02-20T11:49:34.118Z,1009.41
2019-02-20T11:50:34.118Z,1009.34
2019-02-20T11:51:34.134Z,1009.35
2019-02-20T11:52:38.432Z,1009.40
2019-02-20T11:53:37.161Z,1009.36
2019-02-20T11:54:34.064Z,1009.42
2019-02-20T11:55:34.069Z,1009.44
2019-02-20T11:56:34.041Z,1009.45
2019-02-20T11:57:34.032Z,1009.43
2019-02-20T11:58:34.055Z,1009.40
2019-02-20T11:59:33.014Z,1009.43
2019-02-20T12:00:33.992Z,1009.47
2019-02-20T12:01:33.983Z,1009.41
2019-02-20T12:02:37.555Z,1009.51
2019-02-20T12:03:33.976Z,1009.53
2019-02-20T12:04:33.978Z,1009.48
2019-02-20T12:06:32.929Z,1009.54
2019-02-20T12:07:33.408Z,1009.51
2019-02-20T12:08:33.902Z,1009.49
2019-02-20T12:09:32.893Z,1009.41
2019-02-20T12:10:33.887Z,1009.49
2019-02-20T12:11:33.873Z,1009.43
2019-02-20T12:12:33.916Z,1009.41
2019-02-20T12:13:32.858Z,1009.42
2019-02-20T12:14:33.837Z,1009.42
2019-02-20T12:15:33.826Z,1009.44
2019-02-20T12:16:33.815Z,1009.52
2019-02-20T12:17:33.808Z,1009.46
2019-02-20T12:18:33.861Z,1009.45
2019-02-20T12:19:33.782Z,1009.52
2019-02-20T12:20:34.365Z,1009.51
2019-02-20T12:21:33.760Z,1009.46